Time;durP1;ratioP1;P1;durP2;ratioP2;P2;SDS_P1;SDS_P2;PMS_P1;PMS_P2;Temp;Humidity;BMP_temperature;BMP_pressure;BME280_temperature;BME280_humidity;BME280_pressure;Samples;Min_cycle;Max_cycle;Signal;HPM_P1;HPM_P2
2021/09/04 00:02:46;;;;;;;1.55;1.55;;;;;;;11.09;72.36;101958.44;6265967;28;20231;-72
2021/09/04 00:05:50;;;;;;;1.77;1.60;;;;;;;10.90;74.34;101956.34;6265894;28;20301;-72
2021/09/04 00:08:54;;;;;;;2.03;1.50;;;;;;;10.97;74.88;101957.25;6266846;28;20184;-72
2021/09/04 00:12:01;;;;;;;1.75;1.63;;;;;;;10.84;75.83;101946.19;6265444;28;20495;-72
2021/09/04 00:15:06;;;;;;;2.63;2.47;;;;;;;10.93;76.67;101950.50;6266232;28;20185;-73
2021/09/04 00:18:16;;;;;;;1.77;1.70;;;;;;;10.88;77.49;101952.13;6265838;28;20184;-72
2021/09/04 00:21:20;;;;;;;3.20;1.73;;;;;;;10.87;76.66;101950.41;6266078;28;20192;-73
2021/09/04 00:24:24;;;;;;;2.10;1.95;;;;;;;10.81;77.88;101960.22;6264931;28;20296;-73
2021/09/04 00:27:29;;;;;;;6.50;1.80;;;;;;;10.68;78.61;101957.34;6265891;28;20268;-72
2021/09/04 00:30:33;;;;;;;5.20;1.70;;;;;;;10.75;79.51;101951.97;6266111;28;20189;-73
2021/09/04 00:33:42;;;;;;;2.10;1.92;;;;;;;10.88;77.64;101963.91;6265777;28;20418;-73
2021/09/04 00:36:47;;;;;;;2.67;1.85;;;;;;;10.85;77.94;101964.28;6265202;28;20185;-73
2021/09/04 00:39:51;;;;;;;3.03;1.27;;;;;;;10.90;77.72;101959.09;6265020;28;20200;-73
2021/09/04 00:42:55;;;;;;;1.40;1.30;;;;;;;10.86;77.85;101976.88;6265665;28;20243;-73
2021/09/04 00:46:07;;;;;;;2.25;1.40;;;;;;;10.84;77.41;101957.09;6265951;28;20216;-73
2021/09/04 00:49:16;;;;;;;1.30;1.30;;;;;;;10.71;76.55;101967.84;6264491;28;20430;-73
2021/09/04 00:52:20;;;;;;;2.35;1.70;;;;;;;10.79;75.78;101970.50;6265761;28;20193;-73
2021/09/04 00:55:25;;;;;;;2.28;1.40;;;;;;;10.69;76.15;101972.66;6265736;28;20256;-73
2021/09/04 00:58:29;;;;;;;1.60;1.60;;;;;;;10.73;75.72;101974.00;6265644;28;20282;-73
2021/09/04 01:01:34;;;;;;;3.65;1.20;;;;;;;10.54;75.54;101974.56;6264859;28;20484;-73
2021/09/04 01:04:43;;;;;;;1.23;1.17;;;;;;;10.65;74.05;101974.09;6264907;28;20358;-73
2021/09/04 01:07:49;;;;;;;1.42;1.30;;;;;;;10.69;73.33;101959.03;6265542;28;20217;-75
2021/09/04 01:10:57;;;;;;;4.15;1.40;;;;;;;10.57;72.09;101960.56;6264577;28;20185;-73
2021/09/04 01:14:03;;;;;;;1.30;1.30;;;;;;;10.54;70.03;101960.94;6263898;28;20366;-73
2021/09/04 01:17:07;;;;;;;1.10;1.10;;;;;;;10.46;68.94;101974.66;6265397;28;20196;-73
2021/09/04 01:20:13;;;;;;;1.40;1.30;;;;;;;10.51;70.56;101973.06;6263916;28;20538;-73
2021/09/04 01:23:23;;;;;;;1.10;1.10;;;;;;;10.60;68.16;101968.38;6265050;28;20217;-73
2021/09/04 01:26:29;;;;;;;1.20;1.20;;;;;;;10.55;67.34;101973.56;6263709;28;20192;-73
2021/09/04 01:29:33;;;;;;;1.77;1.33;;;;;;;10.58;68.51;101975.88;6265029;28;20225;-73
2021/09/04 01:32:37;;;;;;;1.15;1.15;;;;;;;10.50;66.14;101976.00;6264685;28;20220;-73
2021/09/04 01:35:42;;;;;;;2.05;1.23;;;;;;;10.46;68.15;101980.13;6264429;28;20188;-73
2021/09/04 01:38:46;;;;;;;1.55;1.13;;;;;;;10.44;66.67;101971.28;6264411;28;20231;-73
2021/09/04 01:41:54;;;;;;;1.10;1.00;;;;;;;10.47;66.16;101976.38;6264395;28;20189;-73
2021/09/04 01:44:58;;;;;;;1.00;1.00;;;;;;;10.23;66.25;101982.09;6264513;28;20319;-73
2021/09/04 01:48:02;;;;;;;1.10;1.10;;;;;;;10.24;68.31;101970.16;6263273;28;20400;-73
2021/09/04 01:51:08;;;;;;;3.17;1.15;;;;;;;10.09;66.07;101979.13;6263452;28;20197;-73
2021/09/04 01:54:13;;;;;;;1.10;1.10;;;;;;;10.27;65.02;101975.25;6263088;28;20189;-73
2021/09/04 01:57:20;;;;;;;1.20;1.20;;;;;;;10.24;63.84;101981.06;6264209;28;20239;-73
2021/09/04 02:00:26;;;;;;;2.00;0.88;;;;;;;10.21;64.75;101979.56;6262919;28;20476;-73
2021/09/04 02:03:31;;;;;;;1.55;1.10;;;;;;;9.98;66.07;101974.16;6264318;28;20230;-73
2021/09/04 02:06:35;;;;;;;0.90;0.90;;;;;;;10.16;66.34;101981.16;6263492;28;20264;-73
2021/09/04 02:09:39;;;;;;;1.20;1.20;;;;;;;9.94;65.34;101986.44;6264009;28;20256;-73
2021/09/04 02:12:45;;;;;;;1.85;1.17;;;;;;;10.02;67.02;101991.81;6262207;28;20250;-73
2021/09/04 02:15:49;;;;;;;1.20;1.15;;;;;;;10.07;67.81;101985.81;6263680;28;20188;-73
2021/09/04 02:18:54;;;;;;;0.90;0.90;;;;;;;9.90;66.03;101978.81;6263072;28;20438;-73
2021/09/04 02:21:59;;;;;;;1.15;1.00;;;;;;;10.14;66.46;101991.41;6263877;28;20217;-74
2021/09/04 02:25:04;;;;;;;0.88;0.88;;;;;;;10.07;67.19;101992.09;6262299;28;20380;-73
2021/09/04 02:28:14;;;;;;;2.47;1.00;;;;;;;9.91;66.44;101997.72;6263610;28;20217;-73
2021/09/04 02:31:23;;;;;;;2.28;0.90;;;;;;;9.92;66.28;102004.88;6262703;28;20280;-73
2021/09/04 02:34:34;;;;;;;1.00;1.00;;;;;;;9.59;66.75;101992.56;6262189;28;20460;-73
2021/09/04 02:37:40;;;;;;;1.20;1.10;;;;;;;9.56;66.05;101992.91;6262177;28;20352;-73
2021/09/04 02:40:44;;;;;;;1.00;1.00;;;;;;;9.64;66.66;101990.13;6262976;28;20192;-73
2021/09/04 02:43:50;;;;;;;0.93;0.93;;;;;;;9.56;66.28;102001.09;6262878;28;20276;-74
2021/09/04 02:46:58;;;;;;;1.00;1.00;;;;;;;9.62;66.86;101997.66;6261992;28;20348;-73
2021/09/04 02:50:03;;;;;;;0.90;0.90;;;;;;;9.69;67.59;101992.31;6263399;28;20188;-73
2021/09/04 02:53:08;;;;;;;2.45;1.00;;;;;;;9.64;66.92;102006.47;6262880;28;20185;-73
2021/09/04 02:56:15;;;;;;;0.90;0.90;;;;;;;9.52;67.79;101996.19;6263243;28;20219;-73
2021/09/04 02:59:21;;;;;;;0.98;0.98;;;;;;;9.61;67.91;102005.97;6261954;28;20349;-73
2021/09/04 03:02:26;;;;;;;1.02;1.00;;;;;;;9.52;67.68;102013.41;6262403;28;20200;-73
2021/09/04 03:05:35;;;;;;;1.75;0.90;;;;;;;9.53;68.26;102009.63;6262527;28;20267;-73
2021/09/04 03:09:00;;;;;;;1.10;1.10;;;;;;;9.62;68.70;102008.56;6263014;28;20185;-73
2021/09/04 03:12:20;;;;;;;1.00;1.00;;;;;;;9.42;67.26;102008.16;6262926;28;20189;-73
2021/09/04 03:15:26;;;;;;;3.97;1.10;;;;;;;9.43;67.82;102015.31;6261476;28;20217;-73
2021/09/04 03:18:30;;;;;;;0.93;0.93;;;;;;;9.39;68.86;102013.16;6262812;28;20207;-73
2021/09/04 03:21:37;;;;;;;0.93;0.93;;;;;;;9.29;67.60;102020.72;6262515;28;20185;-73
2021/09/04 03:24:42;;;;;;;1.48;0.90;;;;;;;9.25;68.45;102016.63;6262126;28;20192;-73
2021/09/04 03:27:46;;;;;;;0.93;0.88;;;;;;;9.31;68.73;102021.38;6266489;28;20185;-73
2021/09/04 03:30:51;;;;;;;6.18;1.08;;;;;;;9.51;68.75;102024.47;6267671;28;20192;-73
2021/09/04 03:33:56;;;;;;;0.98;0.80;;;;;;;9.48;69.82;102022.94;6266675;28;20193;-73
2021/09/04 03:37:00;;;;;;;4.35;1.00;;;;;;;9.42;67.58;102023.69;6266370;28;20473;-73
2021/09/04 03:40:11;;;;;;;0.82;0.82;;;;;;;9.36;68.73;102019.81;6266327;28;20374;-73
2021/09/04 03:43:17;;;;;;;4.78;1.00;;;;;;;9.45;68.64;102023.31;6266143;28;20495;-73
2021/09/04 03:46:24;;;;;;;0.98;0.90;;;;;;;9.28;68.64;102028.03;6267401;28;20189;-73
2021/09/04 03:49:29;;;;;;;0.70;0.70;;;;;;;9.25;68.95;102027.53;6267412;28;20192;-73
2021/09/04 03:52:34;;;;;;;1.27;0.80;;;;;;;9.34;69.10;102032.75;6267001;28;20217;-73
2021/09/04 03:55:38;;;;;;;0.93;0.93;;;;;;;9.28;69.06;102032.63;6265733;28;20403;-73
2021/09/04 03:58:43;;;;;;;1.30;0.90;;;;;;;9.30;69.27;102031.41;6265721;28;20223;-73
2021/09/04 04:01:50;;;;;;;0.80;0.80;;;;;;;9.31;68.88;102043.16;6266772;28;20200;-73
2021/09/04 04:04:54;;;;;;;0.88;0.88;;;;;;;9.33;69.50;102041.09;6266753;28;20310;-73
2021/09/04 04:07:59;;;;;;;3.40;0.80;;;;;;;9.39;69.28;102045.84;6266939;28;20185;-73
2021/09/04 04:11:07;;;;;;;0.98;0.98;;;;;;;9.41;68.78;102038.31;6266556;28;20559;-73
2021/09/04 04:14:12;;;;;;;0.98;0.98;;;;;;;9.26;69.36;102040.13;6266408;28;20296;-74
2021/09/04 04:17:18;;;;;;;0.90;0.90;;;;;;;9.17;69.48;102041.19;6266397;28;20192;-74
2021/09/04 04:20:24;;;;;;;1.00;1.00;;;;;;;9.15;69.84;102054.13;6266336;28;20189;-74
2021/09/04 04:23:29;;;;;;;1.10;1.10;;;;;;;9.25;69.76;102050.16;6266583;28;20217;-73
2021/09/04 04:26:33;;;;;;;0.90;0.90;;;;;;;9.44;69.37;102059.75;6264910;28;20437;-74
2021/09/04 04:29:37;;;;;;;3.03;0.80;;;;;;;9.54;68.64;102064.97;6266344;28;20227;-74
2021/09/04 04:32:43;;;;;;;0.88;0.88;;;;;;;9.49;70.48;102057.34;6265072;28;20350;-74
2021/09/04 04:35:50;;;;;;;1.55;0.80;;;;;;;9.39;69.41;102070.34;6265011;28;20218;-73
2021/09/04 04:38:55;;;;;;;1.55;1.30;;;;;;;9.39;69.31;102062.19;6264894;28;20208;-72
2021/09/04 04:42:00;;;;;;;1.48;0.82;;;;;;;9.41;69.54;102065.56;6266097;28;20185;-74
2021/09/04 04:45:06;;;;;;;0.85;0.85;;;;;;;9.62;69.00;102068.50;6265798;28;20188;-73
2021/09/04 04:48:20;;;;;;;0.70;0.70;;;;;;;9.56;70.01;102066.47;6248708;28;20185;-73
2021/09/04 04:51:25;;;;;;;0.98;0.98;;;;;;;9.48;70.22;102077.44;6265950;28;20257;-73
2021/09/04 04:54:30;;;;;;;0.80;0.80;;;;;;;9.56;69.07;102073.81;6265504;28;20231;-73
2021/09/04 04:57:35;;;;;;;0.80;0.80;;;;;;;9.56;69.45;102073.81;6265562;28;20216;-72
2021/09/04 05:00:40;;;;;;;0.88;0.88;;;;;;;9.72;68.91;102074.56;6265527;28;20252;-73
2021/09/04 05:03:47;;;;;;;0.70;0.70;;;;;;;9.78;69.58;102084.75;6265290;28;20192;-72
2021/09/04 05:06:52;;;;;;;5.38;0.90;;;;;;;9.59;70.16;102077.03;6263791;28;20439;-74
2021/09/04 05:09:56;;;;;;;0.80;0.80;;;;;;;9.57;69.88;102079.09;6264101;28;20421;-72
2021/09/04 05:13:02;;;;;;;0.60;0.60;;;;;;;9.61;69.13;102080.41;6265141;28;20199;-72
2021/09/04 05:16:06;;;;;;;1.55;0.75;;;;;;;9.72;69.72;102074.56;6263908;28;20405;-72
2021/09/04 05:19:12;;;;;;;0.98;0.90;;;;;;;9.90;68.71;102083.28;6265331;28;20185;-72
2021/09/04 05:22:17;;;;;;;0.80;0.80;;;;;;;9.77;69.78;102084.91;6264640;28;20184;-72
2021/09/04 05:25:22;;;;;;;0.80;0.80;;;;;;;9.73;70.50;102087.13;6263964;28;20505;-73
2021/09/04 05:28:27;;;;;;;0.70;0.70;;;;;;;9.88;69.77;102089.94;6264998;28;20188;-72
2021/09/04 05:31:31;;;;;;;0.90;0.90;;;;;;;9.87;70.84;102102.72;6263372;28;20232;-73
2021/09/04 05:34:37;;;;;;;0.70;0.70;;;;;;;9.89;69.78;102103.38;6264941;28;20192;-73
2021/09/04 05:37:42;;;;;;;0.80;0.80;;;;;;;9.72;70.31;102101.81;6264620;28;20212;-73
2021/09/04 05:40:46;;;;;;;0.80;0.80;;;;;;;9.90;69.53;102105.09;6263275;28;20361;-73
2021/09/04 05:43:50;;;;;;;0.80;0.80;;;;;;;9.81;69.69;102103.44;6264566;28;20194;-73
2021/09/04 05:46:55;;;;;;;0.65;0.65;;;;;;;10.00;69.72;102100.22;6264130;28;20188;-73
2021/09/04 05:50:02;;;;;;;1.58;0.80;;;;;;;9.87;70.48;102110.03;6263788;28;20185;-73
2021/09/04 05:53:09;;;;;;;2.65;0.60;;;;;;;9.94;70.69;102100.94;6263342;28;20196;-73
2021/09/04 05:56:13;;;;;;;1.08;0.77;;;;;;;10.17;69.58;102116.50;6264308;28;20272;-73
2021/09/04 05:59:18;;;;;;;0.70;0.70;;;;;;;10.06;69.45;102118.59;6262967;28;20447;-73
2021/09/04 06:02:22;;;;;;;0.70;0.70;;;;;;;10.21;70.10;102102.31;6263411;28;20232;-73
2021/09/04 06:05:28;;;;;;;0.68;0.68;;;;;;;10.26;69.76;102110.78;6263338;28;20299;-73
2021/09/04 06:08:33;;;;;;;1.45;0.80;;;;;;;10.35;69.70;102114.28;6263865;28;20248;-73
2021/09/04 06:11:37;;;;;;;1.95;0.70;;;;;;;10.24;69.62;102117.44;6263032;28;20231;-73
2021/09/04 06:14:41;;;;;;;1.00;0.75;;;;;;;10.25;69.88;102113.69;6263939;28;20263;-72
2021/09/04 06:17:45;;;;;;;0.82;0.82;;;;;;;10.26;70.01;102120.84;6262512;28;20563;-72
2021/09/04 06:20:50;;;;;;;0.80;0.80;;;;;;;10.44;69.05;102119.47;6263506;28;20255;-73
2021/09/04 06:23:55;;;;;;;3.15;0.90;;;;;;;10.33;69.95;102132.69;6262283;28;20536;-71
2021/09/04 06:26:59;;;;;;;1.00;1.00;;;;;;;10.29;69.79;102137.69;6263064;28;20227;-72
2021/09/04 06:30:04;;;;;;;0.73;0.73;;;;;;;10.48;69.03;102130.84;6262062;28;20382;-73
2021/09/04 06:33:13;;;;;;;2.40;0.80;;;;;;;10.56;69.44;102128.03;6262216;28;20193;-73
2021/09/04 06:36:19;;;;;;;0.80;0.80;;;;;;;10.61;69.06;102139.25;6262596;28;20271;-73
2021/09/04 06:39:23;;;;;;;1.20;0.90;;;;;;;10.66;69.48;102134.09;6262001;28;20484;-72
2021/09/04 06:42:27;;;;;;;1.55;1.33;;;;;;;10.90;68.40;102125.66;6261907;28;20474;-72
2021/09/04 06:45:31;;;;;;;1.58;0.80;;;;;;;11.10;68.39;102136.84;6263254;28;20247;-72
2021/09/04 06:48:35;;;;;;;1.42;0.82;;;;;;;11.35;67.74;102140.13;6263034;28;20185;-72
2021/09/04 06:51:41;;;;;;;0.85;0.85;;;;;;;11.58;67.18;102146.31;6263027;28;20227;-72
2021/09/04 06:54:45;;;;;;;0.80;0.80;;;;;;;11.49;67.29;102147.44;6262454;28;20239;-72
2021/09/04 06:57:49;;;;;;;0.80;0.80;;;;;;;11.72;66.98;102140.81;6261820;28;20219;-72
2021/09/04 07:00:57;;;;;;;0.68;0.68;;;;;;;11.80;66.79;102140.72;6262525;28;20213;-72
2021/09/04 07:04:02;;;;;;;0.70;0.70;;;;;;;11.78;66.48;102139.22;6262600;28;20192;-72
2021/09/04 07:07:10;;;;;;;0.70;0.70;;;;;;;11.92;66.66;102144.63;6238398;28;20189;-72
2021/09/04 07:10:14;;;;;;;0.85;0.85;;;;;;;11.93;64.96;102131.81;6237177;28;20496;-72
2021/09/04 07:13:18;;;;;;;0.82;0.82;;;;;;;12.01;65.56;102136.28;6237031;28;20473;-72
2021/09/04 07:16:22;;;;;;;0.73;0.73;;;;;;;11.96;65.59;102134.16;6236658;28;20555;-73
2021/09/04 07:19:26;;;;;;;0.80;0.80;;;;;;;12.09;65.27;102138.91;6236941;28;20384;-72
2021/09/04 07:22:32;;;;;;;0.70;0.70;;;;;;;11.97;66.09;102146.75;6236937;28;20446;-73
2021/09/04 07:25:36;;;;;;;0.90;0.90;;;;;;;12.01;65.75;102153.56;6236848;28;20371;-72
2021/09/04 07:28:40;;;;;;;0.93;0.90;;;;;;;11.92;66.12;102143.75;6238113;28;20193;-73
2021/09/04 07:31:44;;;;;;;0.98;0.98;;;;;;;11.92;65.86;102150.09;6237742;28;20190;-73
2021/09/04 07:34:49;;;;;;;1.15;0.90;;;;;;;11.96;65.90;102149.72;6237929;28;20192;-71
2021/09/04 07:37:54;;;;;;;1.30;0.88;;;;;;;11.90;65.59;102159.53;6236545;28;20559;-72
2021/09/04 07:40:58;;;;;;;2.40;0.98;;;;;;;11.81;66.13;102163.44;6237599;28;20249;-72
2021/09/04 07:44:05;;;;;;;1.00;0.90;;;;;;;11.79;65.70;102165.50;6237549;28;20185;-73
2021/09/04 07:47:10;;;;;;;0.70;0.70;;;;;;;11.87;64.96;102165.38;6237956;28;20189;-73
2021/09/04 07:50:14;;;;;;;0.80;0.80;;;;;;;11.88;65.52;102158.88;6236951;28;20257;-72
2021/09/04 07:53:20;;;;;;;2.30;0.88;;;;;;;11.88;65.15;102164.34;6237763;28;20193;-72
2021/09/04 07:56:24;;;;;;;1.08;0.80;;;;;;;11.78;65.63;102164.69;6236455;28;20450;-72
2021/09/04 07:59:28;;;;;;;0.93;0.93;;;;;;;11.92;65.46;102160.19;6237338;28;20190;-72
2021/09/04 08:02:32;;;;;;;0.80;0.80;;;;;;;11.94;65.11;102158.09;6236941;28;20269;-73
2021/09/04 08:05:37;;;;;;;0.73;0.73;;;;;;;12.03;65.15;102162.41;6249637;28;20228;-72
2021/09/04 08:08:42;;;;;;;0.95;0.95;;;;;;;11.95;64.46;102168.00;6260707;28;20519;-71
2021/09/04 08:11:47;;;;;;;1.00;1.00;;;;;;;12.13;64.14;102173.88;6263707;28;20189;-72
2021/09/04 08:14:51;;;;;;;1.10;1.10;;;;;;;12.07;64.49;102169.16;6266318;28;20185;-72
2021/09/04 08:17:55;;;;;;;0.85;0.80;;;;;;;12.19;65.01;102175.00;6265347;28;20258;-72
2021/09/04 08:21:02;;;;;;;2.72;0.90;;;;;;;12.22;64.92;102177.34;6265239;28;20184;-73
2021/09/04 08:24:07;;;;;;;1.65;0.90;;;;;;;12.12;64.92;102194.06;6266332;28;20365;-73
2021/09/04 08:27:12;;;;;;;0.90;0.90;;;;;;;12.20;64.04;102185.72;6265278;28;20569;-73
2021/09/04 08:30:17;;;;;;;0.90;0.90;;;;;;;12.21;64.47;102187.44;6264680;28;20380;-73
2021/09/04 08:33:21;;;;;;;1.08;0.90;;;;;;;12.31;64.23;102190.69;6266018;28;20191;-73
2021/09/04 08:36:25;;;;;;;4.35;1.20;;;;;;;12.13;62.20;102190.28;6265182;28;20223;-73
2021/09/04 08:39:32;;;;;;;2.63;0.77;;;;;;;12.17;62.88;102197.06;6265703;28;20276;-73
2021/09/04 08:42:36;;;;;;;1.08;0.80;;;;;;;12.20;62.15;102185.72;6265907;28;20192;-73
2021/09/04 08:45:40;;;;;;;1.42;0.90;;;;;;;12.18;61.78;102195.19;6264588;28;20472;-73
2021/09/04 08:48:46;;;;;;;0.80;0.80;;;;;;;12.10;61.98;102198.88;6264647;28;20193;-73
2021/09/04 08:51:50;;;;;;;0.70;0.70;;;;;;;12.23;60.80;102201.75;6265658;28;20231;-74
2021/09/04 08:54:56;;;;;;;0.93;0.93;;;;;;;12.23;60.47;102201.75;6265725;28;20220;-73
2021/09/04 08:58:00;;;;;;;3.05;0.85;;;;;;;12.28;59.75;102199.28;6265386;28;20240;-73
2021/09/04 09:01:15;;;;;;;0.90;0.90;;;;;;;12.26;59.47;102195.91;6264363;28;20201;-73
2021/09/04 09:04:24;;;;;;;2.22;0.93;;;;;;;12.33;59.21;102201.44;6264258;28;20185;-73
2021/09/04 09:07:42;;;;;;;1.10;1.10;;;;;;;12.45;60.49;102217.13;6263837;28;20520;-73
2021/09/04 09:10:52;;;;;;;0.75;0.75;;;;;;;12.47;59.20;102204.13;6264008;28;20477;-74
2021/09/04 09:13:57;;;;;;;1.13;1.05;;;;;;;12.56;60.73;102213.03;6264735;28;20185;-73
2021/09/04 09:17:02;;;;;;;2.45;0.80;;;;;;;12.66;59.93;102218.19;6264063;28;20184;-73
2021/09/04 09:20:10;;;;;;;0.80;0.80;;;;;;;12.68;58.02;102227.03;6247140;28;20259;-73
2021/09/04 09:23:16;;;;;;;0.70;0.70;;;;;;;12.67;57.50;102236.28;6262466;28;20469;-74
2021/09/04 09:26:30;;;;;;;1.08;0.85;;;;;;;12.87;56.74;102231.81;6264445;28;20185;-72
2021/09/04 09:29:36;;;;;;;1.20;0.80;;;;;;;12.93;56.58;102231.91;6263430;28;20480;-72
2021/09/04 09:32:53;;;;;;;0.85;0.85;;;;;;;12.88;56.82;102228.06;6263457;28;20384;-74
2021/09/04 09:35:58;;;;;;;0.85;0.85;;;;;;;13.00;56.94;102226.44;6263587;28;20185;-72
2021/09/04 09:39:11;;;;;;;1.00;1.00;;;;;;;12.92;57.12;102241.16;6264120;28;20209;-74
2021/09/04 09:42:19;;;;;;;0.90;0.90;;;;;;;12.98;56.26;102239.50;6263328;28;20219;-73
2021/09/04 09:45:41;;;;;;;0.90;0.90;;;;;;;12.86;55.63;102241.09;6264255;28;20243;-73
2021/09/04 09:48:46;;;;;;;1.00;0.90;;;;;;;12.99;56.08;102241.22;6246230;28;20213;-73
2021/09/04 09:51:50;;;;;;;0.90;0.90;;;;;;;13.15;55.90;102240.91;6263134;28;20510;-73
2021/09/04 09:54:54;;;;;;;1.00;1.00;;;;;;;13.24;56.18;102239.75;6264455;28;20192;-73
2021/09/04 09:58:00;;;;;;;0.80;0.80;;;;;;;13.21;56.65;102234.66;6262995;28;20286;-72
2021/09/04 10:01:05;;;;;;;1.00;1.00;;;;;;;13.20;55.51;102243.91;6263874;28;20234;-73
2021/09/04 10:04:11;;;;;;;0.95;0.95;;;;;;;13.17;55.96;102236.13;6262606;28;20381;-72
2021/09/04 10:07:17;;;;;;;0.90;0.90;;;;;;;13.31;56.06;102242.50;6263959;28;20291;-72
2021/09/04 10:10:23;;;;;;;1.40;0.75;;;;;;;13.44;55.75;102235.22;6262437;28;20379;-72
2021/09/04 10:13:31;;;;;;;0.80;0.80;;;;;;;13.48;55.63;102231.00;6263436;28;20191;-72
2021/09/04 10:16:36;;;;;;;1.00;1.00;;;;;;;13.49;55.54;102224.50;6263502;28;20192;-72
2021/09/04 10:19:41;;;;;;;1.90;1.00;;;;;;;13.48;56.00;102233.75;6262256;28;20597;-72
2021/09/04 10:22:45;;;;;;;2.28;0.90;;;;;;;13.57;54.22;102235.28;6263858;28;20192;-73
2021/09/04 10:25:50;;;;;;;1.25;1.15;;;;;;;13.58;53.55;102231.50;6262348;28;20184;-73
2021/09/04 10:28:58;;;;;;;3.63;1.08;;;;;;;13.75;52.46;102227.38;6263411;28;20188;-73
2021/09/04 10:32:03;;;;;;;1.20;1.20;;;;;;;13.79;52.17;102233.28;6262130;28;20224;-74
2021/09/04 10:35:09;;;;;;;1.17;1.17;;;;;;;13.81;53.15;102226.53;6261572;28;20248;-73
2021/09/04 10:38:31;;;;;;;1.70;1.08;;;;;;;13.81;51.62;102232.00;6262009;28;20549;-73
2021/09/04 10:41:39;;;;;;;1.00;1.00;;;;;;;13.83;50.75;102237.31;6263620;28;20185;-73
2021/09/04 10:44:45;;;;;;;1.27;1.27;;;;;;;13.98;51.18;102231.66;6263114;28;20185;-73
2021/09/04 10:47:50;;;;;;;1.15;1.15;;;;;;;14.17;51.68;102236.38;6263308;28;20185;-73
2021/09/04 10:51:03;;;;;;;0.95;0.95;;;;;;;14.04;50.63;102228.09;6263117;28;20195;-73
2021/09/04 10:54:07;;;;;;;0.95;0.95;;;;;;;14.08;51.16;102237.59;6262702;28;20185;-73
2021/09/04 10:57:14;;;;;;;1.40;1.40;;;;;;;14.11;51.33;102243.53;6262499;28;20216;-74
2021/09/04 11:00:22;;;;;;;0.95;0.95;;;;;;;14.06;51.17;102242.47;6262486;28;20326;-74
2021/09/04 11:03:27;;;;;;;2.25;0.85;;;;;;;14.15;49.28;102233.00;6263255;28;20200;-73
2021/09/04 11:06:32;;;;;;;1.17;0.90;;;;;;;14.24;48.71;102237.25;6262646;28;20259;-73
2021/09/04 11:09:49;;;;;;;1.00;1.00;;;;;;;14.48;49.03;102222.97;6262499;28;20189;-73
2021/09/04 11:13:30;;;;;;;1.00;1.00;;;;;;;14.41;49.03;102233.06;6262331;28;20268;-72
2021/09/04 11:16:45;;;;;;;0.98;0.98;;;;;;;14.37;49.59;102229.06;6261312;28;20380;-73
2021/09/04 11:19:49;;;;;;;1.05;1.05;;;;;;;14.51;50.04;102224.47;6261205;28;20528;-74
2021/09/04 11:22:54;;;;;;;1.42;0.85;;;;;;;14.37;48.50;102235.41;6262439;28;20260;-72
2021/09/04 11:26:04;;;;;;;4.15;1.77;;;;;;;14.49;48.25;102230.13;6262076;28;20191;-73
2021/09/04 11:29:09;;;;;;;0.80;0.80;;;;;;;14.55;49.58;102228.47;6262021;28;20189;-73
2021/09/04 11:32:19;;;;;;;0.90;0.90;;;;;;;14.60;48.32;102237.78;6261519;28;20216;-72
2021/09/04 11:35:24;;;;;;;1.20;1.20;;;;;;;14.55;47.98;102240.31;6261769;28;20221;-73
2021/09/04 11:38:31;;;;;;;2.45;1.25;;;;;;;14.69;48.06;102231.00;6261528;28;20252;-74
2021/09/04 11:41:44;;;;;;;0.98;0.98;;;;;;;14.74;46.15;102228.47;6262224;28;20192;-73
2021/09/04 11:44:50;;;;;;;1.55;0.82;;;;;;;14.83;45.24;102237.34;6262219;28;20189;-73
2021/09/04 11:48:05;;;;;;;1.27;0.80;;;;;;;14.85;45.12;102236.09;6266213;28;20192;-74
2021/09/04 11:51:11;;;;;;;0.85;0.85;;;;;;;14.78;44.40;102235.25;6265833;28;20189;-73
2021/09/04 11:54:27;;;;;;;1.15;1.05;;;;;;;14.85;43.49;102241.56;6266720;28;20268;-73
2021/09/04 11:57:34;;;;;;;1.00;1.00;;;;;;;14.89;45.06;102242.84;6266659;28;20192;-73
2021/09/04 12:00:40;;;;;;;1.10;1.00;;;;;;;15.00;43.74;102247.69;6265619;28;20263;-74
2021/09/04 12:03:45;;;;;;;0.90;0.90;;;;;;;15.00;41.85;102236.72;6266886;28;20185;-73
2021/09/04 12:06:50;;;;;;;1.58;0.88;;;;;;;15.10;43.80;102232.69;6265362;28;20562;-73
2021/09/04 12:09:56;;;;;;;0.80;0.80;;;;;;;15.07;43.27;102237.53;6265460;28;20485;-74
2021/09/04 12:13:02;;;;;;;0.80;0.80;;;;;;;15.19;43.83;102231.41;6266631;28;20185;-73
2021/09/04 12:16:08;;;;;;;0.80;0.80;;;;;;;15.35;44.44;102241.97;6265432;28;20387;-75
2021/09/04 12:19:20;;;;;;;0.70;0.70;;;;;;;15.25;43.29;102239.66;6265117;28;20365;-74
2021/09/04 12:22:32;;;;;;;0.80;0.80;;;;;;;15.01;44.08;102241.16;6265329;28;20472;-74
2021/09/04 12:25:37;;;;;;;0.80;0.80;;;;;;;15.16;46.30;102242.81;6265014;28;20185;-73
2021/09/04 12:28:41;;;;;;;2.95;1.05;;;;;;;15.21;46.28;102248.53;6265128;28;20230;-73
2021/09/04 12:31:47;;;;;;;0.80;0.80;;;;;;;15.13;43.31;102248.75;6266240;28;20197;-74
2021/09/04 12:34:58;;;;;;;1.35;1.35;;;;;;;15.15;43.37;102241.16;6266145;28;20185;-73
2021/09/04 12:38:02;;;;;;;1.02;1.02;;;;;;;15.15;43.68;102250.22;6264864;28;20256;-73
2021/09/04 12:41:09;;;;;;;3.45;0.90;;;;;;;15.38;43.83;102247.03;6264532;28;20212;-74
2021/09/04 12:44:14;;;;;;;0.90;0.90;;;;;;;15.24;43.97;102251.72;6266012;28;20184;-72
2021/09/04 12:47:40;;;;;;;0.93;0.90;;;;;;;15.18;42.35;102259.94;6264414;28;20476;-74
2021/09/04 12:50:46;;;;;;;0.93;0.90;;;;;;;15.30;42.67;102255.50;6264527;28;20189;-73
2021/09/04 12:54:00;;;;;;;0.95;0.88;;;;;;;15.32;42.73;102264.38;6265192;28;20243;-73
2021/09/04 12:57:09;;;;;;;0.90;0.90;;;;;;;15.33;41.11;102266.09;6265041;28;20511;-73
2021/09/04 13:00:27;;;;;;;0.80;0.80;;;;;;;15.35;43.69;102258.47;6264848;28;20216;-74
2021/09/04 13:03:31;;;;;;;0.80;0.80;;;;;;;15.40;42.95;102262.28;6265072;28;20399;-72
2021/09/04 13:06:38;;;;;;;0.70;0.70;;;;;;;15.34;43.30;102268.63;6264348;28;20233;-72
2021/09/04 13:09:42;;;;;;;0.70;0.70;;;;;;;15.26;42.18;102278.97;6265327;28;20252;-72
2021/09/04 13:12:46;;;;;;;1.42;1.00;;;;;;;15.07;41.62;102277.09;6264762;28;20192;-72
2021/09/04 13:15:50;;;;;;;6.55;1.00;;;;;;;15.00;41.09;102277.94;6263707;28;20220;-72
2021/09/04 13:18:54;;;;;;;0.88;0.88;;;;;;;15.04;41.43;102279.22;6264732;28;20264;-73
2021/09/04 13:22:00;;;;;;;1.15;0.75;;;;;;;14.97;41.43;102286.59;6264809;28;20244;-73
2021/09/04 13:25:05;;;;;;;0.90;0.90;;;;;;;14.96;42.51;102284.94;6264610;28;20185;-72
2021/09/04 13:28:11;;;;;;;0.77;0.77;;;;;;;14.93;43.21;102279.84;6263993;28;20242;-73
2021/09/04 13:31:15;;;;;;;0.90;0.90;;;;;;;14.99;42.74;102297.41;6263443;28;20419;-73
2021/09/04 13:34:19;;;;;;;1.30;1.10;;;;;;;14.90;40.89;102288.50;6264606;28;20200;-73
2021/09/04 13:37:25;;;;;;;1.20;1.20;;;;;;;14.92;41.91;102286.38;6264194;28;20263;-73
2021/09/04 13:40:29;;;;;;;1.65;1.00;;;;;;;14.95;42.49;102298.84;6263065;28;20409;-72
2021/09/04 13:47:50;;;;;;;0.82;0.82;;;;;;;15.12;43.00;102291.91;6628269;23;20533;-73
2021/09/04 13:50:55;;;;;;;1.20;1.20;;;;;;;15.07;41.59;102304.59;6215272;28;20229;-74
2021/09/04 13:54:00;;;;;;;1.00;1.00;;;;;;;14.94;40.77;102295.28;6214491;28;20233;-73
2021/09/04 13:57:08;;;;;;;1.42;0.90;;;;;;;14.68;42.74;102306.25;6214910;28;20186;-73
2021/09/04 14:00:13;;;;;;;3.35;0.95;;;;;;;14.66;41.68;102302.84;6215083;28;20225;-73
2021/09/04 14:03:17;;;;;;;4.68;1.20;;;;;;;14.65;40.92;102303.06;6214094;28;20190;-73
2021/09/04 14:06:22;;;;;;;0.88;0.88;;;;;;;14.72;42.42;102291.03;6213766;28;20548;-74
2021/09/04 14:09:32;;;;;;;0.95;0.95;;;;;;;14.88;43.80;102285.13;6212797;28;20186;-73
2021/09/04 14:12:38;;;;;;;0.75;0.75;;;;;;;15.00;41.92;102283.44;6213549;28;20379;-73
2021/09/04 14:15:42;;;;;;;0.77;0.77;;;;;;;14.91;42.16;102284.72;6213120;28;20193;-73
2021/09/04 14:18:47;;;;;;;1.10;1.10;;;;;;;15.01;42.66;102290.63;6213350;28;20384;-74
2021/09/04 14:21:51;;;;;;;1.52;0.80;;;;;;;15.13;42.34;102287.22;6213292;28;20473;-74
2021/09/04 14:24:56;;;;;;;1.10;1.08;;;;;;;15.13;42.33;102299.06;6214183;28;20193;-73
2021/09/04 14:28:00;;;;;;;2.58;0.98;;;;;;;14.97;41.38;102292.09;6214340;28;20240;-73
2021/09/04 14:31:04;;;;;;;1.20;1.20;;;;;;;15.02;41.32;102303.31;6214610;28;20190;-73
2021/09/04 14:34:10;;;;;;;0.90;0.90;;;;;;;14.92;41.68;102297.38;6213348;28;20221;-73